sensor_id;sensor_type;location;lat;lon;timestamp;P1;durP1;ratioP1;P2;durP2;ratioP2
41693;SDS011;27377;50.666;9.150;2024-03-06T00:00:02;29.58;;;18.60;;
41693;SDS011;27377;50.666;9.150;2024-03-06T00:02:51;27.20;;;17.67;;
41693;SDS011;27377;50.666;9.150;2024-03-06T00:05:35;29.23;;;18.00;;
41693;SDS011;27377;50.666;9.150;2024-03-06T00:08:19;28.88;;;18.60;;
41693;SDS011;27377;50.666;9.150;2024-03-06T00:11:04;27.45;;;18.15;;
41693;SDS011;27377;50.666;9.150;2024-03-06T00:13:48;26.95;;;18.10;;
41693;SDS011;27377;50.666;9.150;2024-03-06T00:16:33;28.38;;;17.48;;
41693;SDS011;27377;50.666;9.150;2024-03-06T00:19:18;26.08;;;16.98;;
41693;SDS011;27377;50.666;9.150;2024-03-06T00:22:03;28.30;;;17.23;;
41693;SDS011;27377;50.666;9.150;2024-03-06T00:24:48;24.50;;;16.13;;
41693;SDS011;27377;50.666;9.150;2024-03-06T00:27:32;25.63;;;16.73;;
41693;SDS011;27377;50.666;9.150;2024-03-06T00:30:17;23.13;;;15.85;;
41693;SDS011;27377;50.666;9.150;2024-03-06T00:33:01;26.73;;;17.08;;
41693;SDS011;27377;50.666;9.150;2024-03-06T00:35:46;26.58;;;16.73;;
41693;SDS011;27377;50.666;9.150;2024-03-06T00:38:31;27.58;;;17.50;;
41693;SDS011;27377;50.666;9.150;2024-03-06T00:41:15;30.08;;;18.40;;
41693;SDS011;27377;50.666;9.150;2024-03-06T00:43:59;27.57;;;17.30;;
41693;SDS011;27377;50.666;9.150;2024-03-06T00:46:43;28.23;;;17.65;;
41693;SDS011;27377;50.666;9.150;2024-03-06T00:49:27;28.05;;;17.42;;
41693;SDS011;27377;50.666;9.150;2024-03-06T00:52:12;27.17;;;17.02;;
41693;SDS011;27377;50.666;9.150;2024-03-06T00:54:56;26.23;;;16.90;;
41693;SDS011;27377;50.666;9.150;2024-03-06T00:57:41;27.00;;;16.73;;
41693;SDS011;27377;50.666;9.150;2024-03-06T01:00:25;25.88;;;16.65;;
41693;SDS011;27377;50.666;9.150;2024-03-06T01:03:09;26.70;;;17.25;;
41693;SDS011;27377;50.666;9.150;2024-03-06T01:05:53;25.27;;;16.92;;
41693;SDS011;27377;50.666;9.150;2024-03-06T01:08:37;27.77;;;17.88;;
41693;SDS011;27377;50.666;9.150;2024-03-06T01:11:21;27.10;;;17.63;;
41693;SDS011;27377;50.666;9.150;2024-03-06T01:14:05;28.63;;;18.33;;
41693;SDS011;27377;50.666;9.150;2024-03-06T01:16:49;30.35;;;18.70;;
41693;SDS011;27377;50.666;9.150;2024-03-06T01:19:33;28.73;;;18.08;;
41693;SDS011;27377;50.666;9.150;2024-03-06T01:22:17;27.52;;;18.02;;
41693;SDS011;27377;50.666;9.150;2024-03-06T01:25:02;26.45;;;17.30;;
41693;SDS011;27377;50.666;9.150;2024-03-06T01:27:49;26.70;;;16.63;;
41693;SDS011;27377;50.666;9.150;2024-03-06T01:30:33;28.92;;;18.10;;
41693;SDS011;27377;50.666;9.150;2024-03-06T01:33:17;25.40;;;16.70;;
41693;SDS011;27377;50.666;9.150;2024-03-06T01:36:01;27.43;;;17.23;;
41693;SDS011;27377;50.666;9.150;2024-03-06T01:38:45;29.85;;;17.75;;
41693;SDS011;27377;50.666;9.150;2024-03-06T01:41:30;31.83;;;18.17;;
41693;SDS011;27377;50.666;9.150;2024-03-06T01:44:14;31.33;;;19.27;;
41693;SDS011;27377;50.666;9.150;2024-03-06T01:46:59;31.67;;;18.73;;
41693;SDS011;27377;50.666;9.150;2024-03-06T01:49:44;29.55;;;18.15;;
41693;SDS011;27377;50.666;9.150;2024-03-06T01:52:28;31.20;;;19.50;;
41693;SDS011;27377;50.666;9.150;2024-03-06T01:55:16;37.95;;;21.67;;
41693;SDS011;27377;50.666;9.150;2024-03-06T01:58:00;32.60;;;19.83;;
41693;SDS011;27377;50.666;9.150;2024-03-06T02:00:44;31.77;;;18.60;;
41693;SDS011;27377;50.666;9.150;2024-03-06T02:03:28;32.97;;;19.55;;
41693;SDS011;27377;50.666;9.150;2024-03-06T02:06:15;30.48;;;18.75;;
41693;SDS011;27377;50.666;9.150;2024-03-06T02:09:02;29.25;;;18.40;;
41693;SDS011;27377;50.666;9.150;2024-03-06T02:11:46;33.70;;;19.90;;
41693;SDS011;27377;50.666;9.150;2024-03-06T02:14:30;33.40;;;19.45;;
41693;SDS011;27377;50.666;9.150;2024-03-06T02:17:14;31.67;;;19.02;;
41693;SDS011;27377;50.666;9.150;2024-03-06T02:19:59;29.23;;;18.30;;
41693;SDS011;27377;50.666;9.150;2024-03-06T02:22:43;29.75;;;17.88;;
41693;SDS011;27377;50.666;9.150;2024-03-06T02:25:27;28.73;;;18.05;;
41693;SDS011;27377;50.666;9.150;2024-03-06T02:28:11;30.80;;;18.27;;
41693;SDS011;27377;50.666;9.150;2024-03-06T02:30:55;28.92;;;17.55;;
41693;SDS011;27377;50.666;9.150;2024-03-06T02:33:40;29.58;;;17.83;;
41693;SDS011;27377;50.666;9.150;2024-03-06T02:36:24;28.10;;;17.03;;
41693;SDS011;27377;50.666;9.150;2024-03-06T02:39:08;26.90;;;17.27;;
41693;SDS011;27377;50.666;9.150;2024-03-06T02:41:52;27.45;;;17.08;;
41693;SDS011;27377;50.666;9.150;2024-03-06T02:44:36;29.58;;;17.88;;
41693;SDS011;27377;50.666;9.150;2024-03-06T02:47:20;27.73;;;17.40;;
41693;SDS011;27377;50.666;9.150;2024-03-06T02:50:04;26.75;;;17.25;;
41693;SDS011;27377;50.666;9.150;2024-03-06T02:52:49;27.92;;;16.67;;
41693;SDS011;27377;50.666;9.150;2024-03-06T02:55:35;30.48;;;18.52;;
41693;SDS011;27377;50.666;9.150;2024-03-06T02:58:19;26.38;;;16.85;;
41693;SDS011;27377;50.666;9.150;2024-03-06T03:01:03;30.33;;;17.97;;
41693;SDS011;27377;50.666;9.150;2024-03-06T03:03:48;30.70;;;17.98;;
41693;SDS011;27377;50.666;9.150;2024-03-06T03:06:32;29.70;;;17.70;;
41693;SDS011;27377;50.666;9.150;2024-03-06T03:09:17;29.47;;;17.47;;
41693;SDS011;27377;50.666;9.150;2024-03-06T03:12:02;28.80;;;17.95;;
41693;SDS011;27377;50.666;9.150;2024-03-06T03:14:46;30.17;;;18.80;;
41693;SDS011;27377;50.666;9.150;2024-03-06T03:17:31;30.02;;;18.00;;
41693;SDS011;27377;50.666;9.150;2024-03-06T03:20:16;28.90;;;18.08;;
41693;SDS011;27377;50.666;9.150;2024-03-06T03:23:00;30.50;;;18.38;;
41693;SDS011;27377;50.666;9.150;2024-03-06T03:25:46;29.05;;;18.13;;
41693;SDS011;27377;50.666;9.150;2024-03-06T03:28:30;29.48;;;18.10;;
41693;SDS011;27377;50.666;9.150;2024-03-06T03:31:16;28.85;;;17.23;;
41693;SDS011;27377;50.666;9.150;2024-03-06T03:34:00;29.40;;;18.15;;
41693;SDS011;27377;50.666;9.150;2024-03-06T03:36:45;28.70;;;17.37;;
41693;SDS011;27377;50.666;9.150;2024-03-06T03:39:29;25.90;;;16.90;;
41693;SDS011;27377;50.666;9.150;2024-03-06T03:42:16;29.42;;;18.02;;
41693;SDS011;27377;50.666;9.150;2024-03-06T03:45:04;27.13;;;17.53;;
41693;SDS011;27377;50.666;9.150;2024-03-06T03:47:48;28.37;;;17.77;;
41693;SDS011;27377;50.666;9.150;2024-03-06T03:50:33;27.83;;;17.20;;
41693;SDS011;27377;50.666;9.150;2024-03-06T03:53:17;25.90;;;16.73;;
41693;SDS011;27377;50.666;9.150;2024-03-06T03:56:04;29.43;;;17.50;;
41693;SDS011;27377;50.666;9.150;2024-03-06T03:58:50;27.50;;;17.73;;
41693;SDS011;27377;50.666;9.150;2024-03-06T04:01:34;30.02;;;16.90;;
41693;SDS011;27377;50.666;9.150;2024-03-06T04:04:19;24.85;;;16.10;;
41693;SDS011;27377;50.666;9.150;2024-03-06T04:07:15;26.35;;;16.63;;
41693;SDS011;27377;50.666;9.150;2024-03-06T04:10:00;25.50;;;16.90;;
41693;SDS011;27377;50.666;9.150;2024-03-06T04:12:44;25.08;;;16.73;;
41693;SDS011;27377;50.666;9.150;2024-03-06T04:15:32;28.00;;;17.67;;
41693;SDS011;27377;50.666;9.150;2024-03-06T04:18:17;27.35;;;17.70;;
41693;SDS011;27377;50.666;9.150;2024-03-06T04:21:05;28.85;;;17.83;;
41693;SDS011;27377;50.666;9.150;2024-03-06T04:23:50;31.85;;;18.75;;
41693;SDS011;27377;50.666;9.150;2024-03-06T04:26:35;31.65;;;18.55;;
41693;SDS011;27377;50.666;9.150;2024-03-06T04:29:19;30.67;;;18.90;;
41693;SDS011;27377;50.666;9.150;2024-03-06T04:32:03;31.57;;;18.83;;
41693;SDS011;27377;50.666;9.150;2024-03-06T04:34:48;31.55;;;18.58;;
41693;SDS011;27377;50.666;9.150;2024-03-06T04:37:32;32.15;;;18.73;;
41693;SDS011;27377;50.666;9.150;2024-03-06T04:40:17;31.15;;;18.55;;
41693;SDS011;27377;50.666;9.150;2024-03-06T04:43:03;32.07;;;19.53;;
41693;SDS011;27377;50.666;9.150;2024-03-06T04:45:48;31.48;;;18.55;;
41693;SDS011;27377;50.666;9.150;2024-03-06T04:48:32;28.15;;;17.60;;
41693;SDS011;27377;50.666;9.150;2024-03-06T04:51:17;30.00;;;18.25;;
41693;SDS011;27377;50.666;9.150;2024-03-06T04:54:03;32.87;;;18.53;;
41693;SDS011;27377;50.666;9.150;2024-03-06T04:56:47;30.58;;;18.52;;
41693;SDS011;27377;50.666;9.150;2024-03-06T04:59:31;37.30;;;20.40;;
41693;SDS011;27377;50.666;9.150;2024-03-06T05:02:15;35.75;;;21.30;;
41693;SDS011;27377;50.666;9.150;2024-03-06T05:04:59;35.88;;;20.55;;
41693;SDS011;27377;50.666;9.150;2024-03-06T05:07:44;38.50;;;22.15;;
41693;SDS011;27377;50.666;9.150;2024-03-06T05:10:28;37.92;;;21.85;;
41693;SDS011;27377;50.666;9.150;2024-03-06T05:13:12;40.80;;;22.50;;
41693;SDS011;27377;50.666;9.150;2024-03-06T05:15:57;37.45;;;21.60;;
41693;SDS011;27377;50.666;9.150;2024-03-06T05:18:41;35.90;;;21.38;;
41693;SDS011;27377;50.666;9.150;2024-03-06T05:21:25;38.75;;;21.40;;
41693;SDS011;27377;50.666;9.150;2024-03-06T05:24:09;39.20;;;21.90;;
41693;SDS011;27377;50.666;9.150;2024-03-06T05:26:54;37.55;;;20.58;;
41693;SDS011;27377;50.666;9.150;2024-03-06T05:29:39;36.35;;;20.85;;
41693;SDS011;27377;50.666;9.150;2024-03-06T05:32:23;34.55;;;20.58;;
41693;SDS011;27377;50.666;9.150;2024-03-06T05:35:07;33.63;;;20.20;;
41693;SDS011;27377;50.666;9.150;2024-03-06T05:37:55;33.20;;;20.03;;
41693;SDS011;27377;50.666;9.150;2024-03-06T05:40:40;37.00;;;21.87;;
41693;SDS011;27377;50.666;9.150;2024-03-06T05:43:29;39.53;;;21.90;;
41693;SDS011;27377;50.666;9.150;2024-03-06T05:46:13;39.17;;;22.02;;
41693;SDS011;27377;50.666;9.150;2024-03-06T05:48:57;39.25;;;20.98;;
41693;SDS011;27377;50.666;9.150;2024-03-06T05:51:41;38.90;;;21.45;;
41693;SDS011;27377;50.666;9.150;2024-03-06T05:54:25;36.97;;;21.48;;
41693;SDS011;27377;50.666;9.150;2024-03-06T05:57:09;40.03;;;22.75;;
41693;SDS011;27377;50.666;9.150;2024-03-06T05:59:53;41.80;;;22.98;;
41693;SDS011;27377;50.666;9.150;2024-03-06T06:02:37;39.60;;;22.07;;
41693;SDS011;27377;50.666;9.150;2024-03-06T06:05:21;36.93;;;21.50;;
41693;SDS011;27377;50.666;9.150;2024-03-06T06:08:06;35.92;;;21.23;;
41693;SDS011;27377;50.666;9.150;2024-03-06T06:10:50;36.08;;;21.15;;
41693;SDS011;27377;50.666;9.150;2024-03-06T06:13:38;38.42;;;21.58;;
41693;SDS011;27377;50.666;9.150;2024-03-06T06:16:23;38.13;;;21.75;;
41693;SDS011;27377;50.666;9.150;2024-03-06T06:19:07;41.00;;;23.30;;
41693;SDS011;27377;50.666;9.150;2024-03-06T06:21:53;41.90;;;22.60;;
41693;SDS011;27377;50.666;9.150;2024-03-06T06:24:38;38.35;;;21.50;;
41693;SDS011;27377;50.666;9.150;2024-03-06T06:27:22;39.08;;;22.58;;
41693;SDS011;27377;50.666;9.150;2024-03-06T06:30:08;38.97;;;22.60;;
41693;SDS011;27377;50.666;9.150;2024-03-06T06:32:54;39.15;;;22.50;;
41693;SDS011;27377;50.666;9.150;2024-03-06T06:35:38;38.03;;;22.83;;
41693;SDS011;27377;50.666;9.150;2024-03-06T06:38:22;38.33;;;22.25;;
41693;SDS011;27377;50.666;9.150;2024-03-06T06:41:06;36.50;;;22.40;;
41693;SDS011;27377;50.666;9.150;2024-03-06T06:43:51;34.03;;;21.38;;
41693;SDS011;27377;50.666;9.150;2024-03-06T06:46:18;36.53;;;21.58;;
41693;SDS011;27377;50.666;9.150;2024-03-06T06:49:02;35.10;;;21.42;;
41693;SDS011;27377;50.666;9.150;2024-03-06T06:51:47;35.50;;;21.77;;
41693;SDS011;27377;50.666;9.150;2024-03-06T06:54:32;35.33;;;20.77;;
41693;SDS011;27377;50.666;9.150;2024-03-06T06:57:17;38.58;;;22.23;;
41693;SDS011;27377;50.666;9.150;2024-03-06T07:00:01;40.25;;;23.02;;
41693;SDS011;27377;50.666;9.150;2024-03-06T07:02:54;38.33;;;22.58;;
41693;SDS011;27377;50.666;9.150;2024-03-06T07:05:38;39.78;;;23.30;;
41693;SDS011;27377;50.666;9.150;2024-03-06T07:08:22;45.25;;;25.70;;
41693;SDS011;27377;50.666;9.150;2024-03-06T07:11:07;48.00;;;26.55;;
41693;SDS011;27377;50.666;9.150;2024-03-06T07:13:51;49.42;;;26.80;;
41693;SDS011;27377;50.666;9.150;2024-03-06T07:16:41;51.07;;;27.23;;
41693;SDS011;27377;50.666;9.150;2024-03-06T07:19:28;54.17;;;29.13;;
41693;SDS011;27377;50.666;9.150;2024-03-06T07:22:13;51.05;;;28.15;;
41693;SDS011;27377;50.666;9.150;2024-03-06T07:24:57;54.67;;;29.38;;
41693;SDS011;27377;50.666;9.150;2024-03-06T07:27:41;56.25;;;30.40;;
41693;SDS011;27377;50.666;9.150;2024-03-06T07:30:25;60.45;;;30.20;;
41693;SDS011;27377;50.666;9.150;2024-03-06T07:33:09;60.30;;;30.48;;
41693;SDS011;27377;50.666;9.150;2024-03-06T07:35:53;56.08;;;30.30;;
41693;SDS011;27377;50.666;9.150;2024-03-06T07:38:38;60.72;;;31.13;;
41693;SDS011;27377;50.666;9.150;2024-03-06T07:41:22;60.67;;;32.00;;
41693;SDS011;27377;50.666;9.150;2024-03-06T07:44:07;59.35;;;31.00;;
41693;SDS011;27377;50.666;9.150;2024-03-06T07:46:52;60.35;;;31.92;;
41693;SDS011;27377;50.666;9.150;2024-03-06T07:49:37;57.65;;;30.88;;
41693;SDS011;27377;50.666;9.150;2024-03-06T07:52:21;54.10;;;29.98;;
41693;SDS011;27377;50.666;9.150;2024-03-06T07:55:06;55.22;;;30.50;;
41693;SDS011;27377;50.666;9.150;2024-03-06T07:57:50;54.53;;;30.15;;
41693;SDS011;27377;50.666;9.150;2024-03-06T08:00:34;59.80;;;31.75;;
41693;SDS011;27377;50.666;9.150;2024-03-06T08:03:19;58.00;;;30.17;;
41693;SDS011;27377;50.666;9.150;2024-03-06T08:06:03;57.70;;;31.23;;
41693;SDS011;27377;50.666;9.150;2024-03-06T08:08:47;54.58;;;30.05;;
41693;SDS011;27377;50.666;9.150;2024-03-06T08:11:31;59.53;;;31.90;;
41693;SDS011;27377;50.666;9.150;2024-03-06T08:14:16;58.00;;;31.23;;
41693;SDS011;27377;50.666;9.150;2024-03-06T08:17:01;56.90;;;31.10;;
41693;SDS011;27377;50.666;9.150;2024-03-06T08:19:46;59.03;;;31.33;;
41693;SDS011;27377;50.666;9.150;2024-03-06T08:22:30;60.58;;;32.28;;
41693;SDS011;27377;50.666;9.150;2024-03-06T08:25:14;59.08;;;33.03;;
41693;SDS011;27377;50.666;9.150;2024-03-06T08:27:58;56.30;;;30.73;;
41693;SDS011;27377;50.666;9.150;2024-03-06T08:30:47;56.33;;;31.38;;
41693;SDS011;27377;50.666;9.150;2024-03-06T08:33:31;53.40;;;30.80;;
41693;SDS011;27377;50.666;9.150;2024-03-06T08:36:15;53.03;;;30.50;;
41693;SDS011;27377;50.666;9.150;2024-03-06T08:38:59;55.17;;;30.75;;
41693;SDS011;27377;50.666;9.150;2024-03-06T08:41:43;56.45;;;30.95;;
41693;SDS011;27377;50.666;9.150;2024-03-06T08:44:27;54.03;;;30.70;;
41693;SDS011;27377;50.666;9.150;2024-03-06T08:47:12;52.33;;;29.98;;
41693;SDS011;27377;50.666;9.150;2024-03-06T08:49:56;52.92;;;30.73;;
41693;SDS011;27377;50.666;9.150;2024-03-06T08:52:40;52.42;;;30.23;;
41693;SDS011;27377;50.666;9.150;2024-03-06T08:55:25;53.78;;;30.42;;
41693;SDS011;27377;50.666;9.150;2024-03-06T08:58:09;53.92;;;31.67;;
41693;SDS011;27377;50.666;9.150;2024-03-06T09:00:53;58.27;;;32.63;;
41693;SDS011;27377;50.666;9.150;2024-03-06T09:03:37;52.93;;;31.13;;
41693;SDS011;27377;50.666;9.150;2024-03-06T09:06:21;54.60;;;31.33;;
41693;SDS011;27377;50.666;9.150;2024-03-06T09:09:05;52.40;;;31.00;;
41693;SDS011;27377;50.666;9.150;2024-03-06T09:11:49;52.63;;;31.13;;
41693;SDS011;27377;50.666;9.150;2024-03-06T09:14:33;54.10;;;31.08;;
41693;SDS011;27377;50.666;9.150;2024-03-06T09:17:18;52.20;;;30.20;;
41693;SDS011;27377;50.666;9.150;2024-03-06T09:20:02;54.20;;;31.38;;
41693;SDS011;27377;50.666;9.150;2024-03-06T09:22:53;52.63;;;29.88;;
41693;SDS011;27377;50.666;9.150;2024-03-06T09:25:40;50.57;;;28.43;;
41693;SDS011;27377;50.666;9.150;2024-03-06T09:28:24;51.08;;;28.58;;
41693;SDS011;27377;50.666;9.150;2024-03-06T09:31:08;50.28;;;27.88;;
41693;SDS011;27377;50.666;9.150;2024-03-06T09:33:52;47.17;;;27.73;;
41693;SDS011;27377;50.666;9.150;2024-03-06T09:36:36;47.03;;;27.85;;
41693;SDS011;27377;50.666;9.150;2024-03-06T09:39:20;46.72;;;27.90;;
41693;SDS011;27377;50.666;9.150;2024-03-06T09:42:06;46.45;;;27.02;;
41693;SDS011;27377;50.666;9.150;2024-03-06T09:44:51;44.15;;;26.63;;
41693;SDS011;27377;50.666;9.150;2024-03-06T09:47:36;43.53;;;26.33;;
41693;SDS011;27377;50.666;9.150;2024-03-06T09:50:22;43.75;;;26.27;;
41693;SDS011;27377;50.666;9.150;2024-03-06T09:53:09;45.70;;;26.15;;
41693;SDS011;27377;50.666;9.150;2024-03-06T09:55:56;44.17;;;26.40;;
41693;SDS011;27377;50.666;9.150;2024-03-06T09:58:41;44.67;;;25.50;;
41693;SDS011;27377;50.666;9.150;2024-03-06T10:01:25;42.45;;;25.27;;
41693;SDS011;27377;50.666;9.150;2024-03-06T10:04:21;47.95;;;26.92;;
41693;SDS011;27377;50.666;9.150;2024-03-06T10:07:06;43.83;;;26.63;;
41693;SDS011;27377;50.666;9.150;2024-03-06T10:09:51;44.97;;;26.40;;
41693;SDS011;27377;50.666;9.150;2024-03-06T10:12:35;44.50;;;26.42;;
41693;SDS011;27377;50.666;9.150;2024-03-06T10:15:20;44.00;;;25.88;;
41693;SDS011;27377;50.666;9.150;2024-03-06T10:18:12;46.57;;;27.13;;
41693;SDS011;27377;50.666;9.150;2024-03-06T10:21:01;45.95;;;26.08;;
41693;SDS011;27377;50.666;9.150;2024-03-06T10:23:46;44.03;;;26.67;;
41693;SDS011;27377;50.666;9.150;2024-03-06T10:26:30;46.85;;;27.08;;
41693;SDS011;27377;50.666;9.150;2024-03-06T10:29:15;46.40;;;27.23;;
41693;SDS011;27377;50.666;9.150;2024-03-06T10:32:01;45.80;;;27.02;;
41693;SDS011;27377;50.666;9.150;2024-03-06T10:34:45;46.95;;;27.08;;
41693;SDS011;27377;50.666;9.150;2024-03-06T10:37:29;45.58;;;26.80;;
41693;SDS011;27377;50.666;9.150;2024-03-06T10:40:14;44.33;;;26.83;;
41693;SDS011;27377;50.666;9.150;2024-03-06T10:43:01;45.22;;;26.80;;
41693;SDS011;27377;50.666;9.150;2024-03-06T10:45:59;47.40;;;27.87;;
41693;SDS011;27377;50.666;9.150;2024-03-06T10:48:48;45.53;;;27.47;;
41693;SDS011;27377;50.666;9.150;2024-03-06T10:51:33;44.85;;;26.67;;
41693;SDS011;27377;50.666;9.150;2024-03-06T10:54:19;46.08;;;27.25;;
41693;SDS011;27377;50.666;9.150;2024-03-06T10:57:04;45.17;;;26.90;;
41693;SDS011;27377;50.666;9.150;2024-03-06T10:59:49;47.20;;;27.42;;
41693;SDS011;27377;50.666;9.150;2024-03-06T11:02:34;44.10;;;25.88;;
41693;SDS011;27377;50.666;9.150;2024-03-06T11:05:21;42.95;;;26.08;;
41693;SDS011;27377;50.666;9.150;2024-03-06T11:08:09;42.10;;;25.08;;
41693;SDS011;27377;50.666;9.150;2024-03-06T11:11:02;41.17;;;24.70;;
41693;SDS011;27377;50.666;9.150;2024-03-06T11:14:06;40.60;;;23.77;;
41693;SDS011;27377;50.666;9.150;2024-03-06T11:28:36;38.50;;;23.50;;
41693;SDS011;27377;50.666;9.150;2024-03-06T11:31:23;35.97;;;22.40;;
41693;SDS011;27377;50.666;9.150;2024-03-06T11:34:10;35.17;;;22.10;;
41693;SDS011;27377;50.666;9.150;2024-03-06T11:36:59;37.45;;;22.55;;
41693;SDS011;27377;50.666;9.150;2024-03-06T11:39:48;35.27;;;22.73;;
41693;SDS011;27377;50.666;9.150;2024-03-06T11:42:32;35.60;;;22.35;;
41693;SDS011;27377;50.666;9.150;2024-03-06T11:45:19;37.90;;;23.48;;
41693;SDS011;27377;50.666;9.150;2024-03-06T11:48:05;37.17;;;23.35;;
41693;SDS011;27377;50.666;9.150;2024-03-06T11:50:50;37.58;;;22.48;;
41693;SDS011;27377;50.666;9.150;2024-03-06T11:53:35;33.55;;;21.50;;
41693;SDS011;27377;50.666;9.150;2024-03-06T11:56:20;38.22;;;23.67;;
41693;SDS011;27377;50.666;9.150;2024-03-06T11:59:11;35.97;;;22.08;;
41693;SDS011;27377;50.666;9.150;2024-03-06T12:01:57;35.15;;;22.25;;
41693;SDS011;27377;50.666;9.150;2024-03-06T12:04:46;36.08;;;22.33;;
41693;SDS011;27377;50.666;9.150;2024-03-06T12:07:31;35.10;;;22.33;;
41693;SDS011;27377;50.666;9.150;2024-03-06T12:12:45;36.75;;;21.98;;
41693;SDS011;27377;50.666;9.150;2024-03-06T12:15:29;37.25;;;22.52;;
41693;SDS011;27377;50.666;9.150;2024-03-06T12:18:16;35.95;;;22.40;;
41693;SDS011;27377;50.666;9.150;2024-03-06T12:21:01;36.05;;;23.13;;
41693;SDS011;27377;50.666;9.150;2024-03-06T12:23:46;35.50;;;22.85;;
41693;SDS011;27377;50.666;9.150;2024-03-06T12:26:30;38.28;;;23.35;;
41693;SDS011;27377;50.666;9.150;2024-03-06T12:29:17;36.40;;;22.88;;
41693;SDS011;27377;50.666;9.150;2024-03-06T12:32:15;34.40;;;21.90;;
41693;SDS011;27377;50.666;9.150;2024-03-06T12:35:00;35.38;;;22.42;;
41693;SDS011;27377;50.666;9.150;2024-03-06T12:37:44;36.45;;;22.38;;
41693;SDS011;27377;50.666;9.150;2024-03-06T12:40:28;38.63;;;23.17;;
41693;SDS011;27377;50.666;9.150;2024-03-06T12:43:12;36.25;;;22.88;;
41693;SDS011;27377;50.666;9.150;2024-03-06T12:45:56;38.92;;;23.98;;
41693;SDS011;27377;50.666;9.150;2024-03-06T12:48:41;35.70;;;22.98;;
41693;SDS011;27377;50.666;9.150;2024-03-06T12:51:25;37.72;;;22.90;;
41693;SDS011;27377;50.666;9.150;2024-03-06T12:54:09;35.28;;;22.30;;
41693;SDS011;27377;50.666;9.150;2024-03-06T12:56:53;37.88;;;22.98;;
41693;SDS011;27377;50.666;9.150;2024-03-06T12:59:38;35.17;;;22.27;;
41693;SDS011;27377;50.666;9.150;2024-03-06T13:02:23;33.53;;;21.65;;
41693;SDS011;27377;50.666;9.150;2024-03-06T13:05:07;35.10;;;22.65;;
41693;SDS011;27377;50.666;9.150;2024-03-06T13:07:51;34.20;;;21.70;;
41693;SDS011;27377;50.666;9.150;2024-03-06T13:10:35;34.97;;;22.48;;
41693;SDS011;27377;50.666;9.150;2024-03-06T13:13:19;34.25;;;21.77;;
41693;SDS011;27377;50.666;9.150;2024-03-06T13:16:04;36.05;;;22.73;;
41693;SDS011;27377;50.666;9.150;2024-03-06T13:18:48;34.70;;;22.67;;
41693;SDS011;27377;50.666;9.150;2024-03-06T13:21:33;34.20;;;21.42;;
41693;SDS011;27377;50.666;9.150;2024-03-06T13:24:17;32.17;;;21.08;;
41693;SDS011;27377;50.666;9.150;2024-03-06T13:27:01;34.47;;;22.52;;
41693;SDS011;27377;50.666;9.150;2024-03-06T13:29:45;33.10;;;21.80;;
41693;SDS011;27377;50.666;9.150;2024-03-06T13:32:29;32.35;;;22.05;;
41693;SDS011;27377;50.666;9.150;2024-03-06T13:35:13;32.72;;;21.08;;
41693;SDS011;27377;50.666;9.150;2024-03-06T13:37:58;35.38;;;22.25;;
41693;SDS011;27377;50.666;9.150;2024-03-06T13:40:42;34.60;;;22.25;;
41693;SDS011;27377;50.666;9.150;2024-03-06T13:43:26;34.70;;;22.35;;
41693;SDS011;27377;50.666;9.150;2024-03-06T13:46:10;34.55;;;22.63;;
41693;SDS011;27377;50.666;9.150;2024-03-06T13:48:54;33.22;;;22.17;;
41693;SDS011;27377;50.666;9.150;2024-03-06T13:51:38;36.22;;;22.75;;
41693;SDS011;27377;50.666;9.150;2024-03-06T13:54:22;35.28;;;23.33;;
41693;SDS011;27377;50.666;9.150;2024-03-06T13:57:07;38.67;;;24.52;;
41693;SDS011;27377;50.666;9.150;2024-03-06T13:59:52;39.05;;;24.00;;
41693;SDS011;27377;50.666;9.150;2024-03-06T14:02:36;40.00;;;24.23;;
41693;SDS011;27377;50.666;9.150;2024-03-06T14:05:20;40.08;;;25.15;;
41693;SDS011;27377;50.666;9.150;2024-03-06T14:08:08;41.30;;;26.27;;
41693;SDS011;27377;50.666;9.150;2024-03-06T14:10:55;43.03;;;26.13;;
41693;SDS011;27377;50.666;9.150;2024-03-06T14:13:39;47.85;;;27.13;;
41693;SDS011;27377;50.666;9.150;2024-03-06T14:16:24;50.05;;;28.00;;
41693;SDS011;27377;50.666;9.150;2024-03-06T14:19:08;45.58;;;25.80;;
41693;SDS011;27377;50.666;9.150;2024-03-06T14:21:52;44.15;;;25.80;;
41693;SDS011;27377;50.666;9.150;2024-03-06T14:24:36;46.00;;;26.43;;
41693;SDS011;27377;50.666;9.150;2024-03-06T14:27:20;44.17;;;25.75;;
41693;SDS011;27377;50.666;9.150;2024-03-06T14:30:04;46.43;;;26.37;;
41693;SDS011;27377;50.666;9.150;2024-03-06T14:32:53;47.40;;;27.55;;
41693;SDS011;27377;50.666;9.150;2024-03-06T14:35:37;45.08;;;27.45;;
41693;SDS011;27377;50.666;9.150;2024-03-06T14:38:21;45.00;;;27.50;;
41693;SDS011;27377;50.666;9.150;2024-03-06T14:41:05;44.47;;;27.10;;
41693;SDS011;27377;50.666;9.150;2024-03-06T14:43:50;45.63;;;27.08;;
41693;SDS011;27377;50.666;9.150;2024-03-06T14:46:35;45.42;;;26.98;;
41693;SDS011;27377;50.666;9.150;2024-03-06T14:49:19;48.20;;;28.15;;
41693;SDS011;27377;50.666;9.150;2024-03-06T14:52:03;44.55;;;27.02;;
41693;SDS011;27377;50.666;9.150;2024-03-06T14:54:48;47.53;;;28.08;;
41693;SDS011;27377;50.666;9.150;2024-03-06T14:57:33;48.53;;;28.27;;
41693;SDS011;27377;50.666;9.150;2024-03-06T15:00:17;47.63;;;27.70;;
41693;SDS011;27377;50.666;9.150;2024-03-06T15:03:04;49.13;;;28.58;;
41693;SDS011;27377;50.666;9.150;2024-03-06T15:05:48;46.97;;;28.90;;
41693;SDS011;27377;50.666;9.150;2024-03-06T15:08:33;44.60;;;27.63;;
41693;SDS011;27377;50.666;9.150;2024-03-06T15:11:19;43.15;;;27.15;;
41693;SDS011;27377;50.666;9.150;2024-03-06T15:14:05;47.92;;;27.55;;
41693;SDS011;27377;50.666;9.150;2024-03-06T15:16:51;48.35;;;29.35;;
41693;SDS011;27377;50.666;9.150;2024-03-06T15:19:35;47.55;;;28.35;;
41693;SDS011;27377;50.666;9.150;2024-03-06T15:22:21;46.35;;;28.73;;
41693;SDS011;27377;50.666;9.150;2024-03-06T15:25:05;48.63;;;29.35;;
41693;SDS011;27377;50.666;9.150;2024-03-06T15:27:50;46.25;;;28.95;;
41693;SDS011;27377;50.666;9.150;2024-03-06T15:30:35;47.85;;;29.50;;
41693;SDS011;27377;50.666;9.150;2024-03-06T15:33:20;48.50;;;29.23;;
41693;SDS011;27377;50.666;9.150;2024-03-06T15:36:04;48.00;;;30.50;;
41693;SDS011;27377;50.666;9.150;2024-03-06T15:38:48;47.88;;;29.77;;
41693;SDS011;27377;50.666;9.150;2024-03-06T15:41:32;49.92;;;30.80;;
41693;SDS011;27377;50.666;9.150;2024-03-06T15:44:16;46.25;;;29.67;;
41693;SDS011;27377;50.666;9.150;2024-03-06T15:47:00;50.03;;;30.60;;
41693;SDS011;27377;50.666;9.150;2024-03-06T15:49:47;46.58;;;30.70;;
41693;SDS011;27377;50.666;9.150;2024-03-06T15:52:31;47.33;;;30.60;;
41693;SDS011;27377;50.666;9.150;2024-03-06T15:55:15;48.10;;;31.23;;
41693;SDS011;27377;50.666;9.150;2024-03-06T15:57:59;48.13;;;29.98;;
41693;SDS011;27377;50.666;9.150;2024-03-06T16:00:43;49.47;;;31.42;;
41693;SDS011;27377;50.666;9.150;2024-03-06T16:03:27;46.40;;;31.23;;
41693;SDS011;27377;50.666;9.150;2024-03-06T16:06:11;49.17;;;30.27;;
41693;SDS011;27377;50.666;9.150;2024-03-06T16:08:56;48.85;;;32.72;;
41693;SDS011;27377;50.666;9.150;2024-03-06T16:11:41;46.40;;;30.87;;
41693;SDS011;27377;50.666;9.150;2024-03-06T16:14:25;48.30;;;32.05;;
41693;SDS011;27377;50.666;9.150;2024-03-06T16:17:09;49.80;;;31.50;;